createdAt,value
2019-05-02T00:00:59.925Z,16.40
2019-05-02T00:02:04.509Z,14.00
2019-05-02T00:03:07.436Z,17.60
2019-05-02T00:04:12.343Z,18.40
2019-05-02T00:05:15.967Z,19.80
2019-05-02T00:06:18.957Z,17.40
2019-05-02T00:07:21.758Z,19.20
2019-05-02T00:08:29.249Z,17.20
2019-05-02T00:09:33.407Z,26.80
2019-05-02T00:10:35.347Z,18.40
2019-05-02T00:11:38.698Z,18.20
2019-05-02T00:12:43.363Z,16.60
2019-05-02T00:13:46.081Z,17.80
2019-05-02T00:14:48.966Z,13.20
2019-05-02T00:15:51.986Z,22.40
2019-05-02T00:16:56.651Z,19.60
2019-05-02T00:18:01.408Z,21.60
2019-05-02T00:19:04.010Z,22.80
2019-05-02T00:20:08.906Z,17.00
2019-05-02T00:21:12.002Z,21.40
2019-05-02T00:22:17.302Z,20.00
2019-05-02T00:23:22.952Z,14.00
2019-05-02T00:24:24.766Z,19.40
2019-05-02T00:25:27.356Z,20.00
2019-05-02T00:26:30.998Z,17.20
2019-05-02T00:27:37.835Z,21.00
2019-05-02T00:28:38.044Z,22.40
2019-05-02T00:29:40.836Z,18.20
2019-05-02T00:30:43.451Z,24.60
2019-05-02T00:31:46.975Z,21.20
2019-05-02T00:32:53.130Z,18.60
2019-05-02T00:33:54.350Z,17.60
2019-05-02T00:34:57.129Z,22.40
2019-05-02T00:35:59.662Z,22.80
2019-05-02T00:37:01.361Z,22.80
2019-05-02T00:38:05.312Z,24.40
2019-05-02T00:39:09.629Z,22.20
2019-05-02T00:40:13.176Z,23.80
2019-05-02T00:41:16.357Z,23.20
2019-05-02T00:42:22.564Z,25.40
2019-05-02T00:43:23.378Z,24.80
2019-05-02T00:44:25.965Z,22.20
2019-05-02T00:45:28.667Z,25.80
2019-05-02T00:46:35.066Z,18.00
2019-05-02T00:47:42.284Z,22.60
2019-05-02T00:48:47.365Z,21.20
2019-05-02T00:49:49.715Z,23.20
2019-05-02T00:50:54.393Z,17.00
2019-05-02T00:52:01.409Z,21.80
2019-05-02T00:53:07.188Z,21.20
2019-05-02T00:54:07.689Z,16.00
2019-05-02T00:55:11.001Z,22.20
2019-05-02T00:56:13.733Z,24.00
2019-05-02T00:57:20.065Z,25.80
2019-05-02T00:58:20.330Z,22.20
2019-05-02T00:59:23.371Z,20.20
2019-05-02T01:00:25.479Z,18.80
2019-05-02T01:01:43.142Z,22.80
2019-05-02T01:02:52.975Z,26.60
2019-05-02T01:04:03.115Z,23.80
2019-05-02T01:05:06.016Z,22.40
2019-05-02T01:06:13.745Z,17.80
2019-05-02T01:07:13.386Z,22.40
2019-05-02T01:08:16.003Z,23.80
2019-05-02T01:09:19.140Z,22.00
2019-05-02T01:10:21.380Z,15.00
2019-05-02T01:11:28.278Z,16.20
2019-05-02T01:12:28.965Z,24.80
2019-05-02T01:13:30.885Z,23.40
2019-05-02T01:14:33.355Z,19.00
2019-05-02T01:15:38.960Z,24.40
2019-05-02T01:16:39.624Z,23.40
2019-05-02T01:17:41.942Z,22.80
2019-05-02T01:18:45.017Z,26.00
2019-05-02T01:19:51.349Z,16.60
2019-05-02T01:20:51.730Z,34.20
2019-05-02T01:21:53.605Z,28.20
2019-05-02T01:22:56.126Z,24.60
2019-05-02T01:24:02.994Z,25.80
2019-05-02T01:25:06.320Z,23.00
2019-05-02T01:26:10.498Z,28.40
2019-05-02T01:27:14.908Z,24.20
2019-05-02T01:28:19.107Z,19.40
2019-05-02T01:29:24.895Z,30.20
2019-05-02T01:30:42.289Z,26.00
2019-05-02T01:31:54.792Z,17.40
2019-05-02T01:33:06.732Z,30.00
2019-05-02T01:34:18.127Z,26.40
2019-05-02T01:35:19.679Z,29.20
2019-05-02T01:36:30.025Z,25.40
2019-05-02T01:37:50.958Z,15.60
2019-05-02T01:38:55.723Z,29.60
2019-05-02T01:39:57.965Z,28.20
2019-05-02T01:41:00.329Z,16.80
2019-05-02T01:42:04.294Z,25.80
2019-05-02T01:43:24.033Z,27.60
2019-05-02T01:44:31.061Z,25.00
2019-05-02T01:45:32.062Z,29.00
2019-05-02T01:46:34.359Z,26.20
2019-05-02T01:47:36.961Z,30.20
2019-05-02T01:48:45.764Z,30.00
2019-05-02T01:49:44.977Z,28.20
2019-05-02T01:50:48.218Z,29.00
2019-05-02T01:51:50.507Z,27.20
2019-05-02T01:52:53.655Z,29.00
2019-05-02T01:53:57.283Z,30.40
2019-05-02T01:54:59.837Z,36.80
2019-05-02T01:56:03.725Z,28.00
2019-05-02T01:57:08.671Z,32.00
2019-05-02T01:58:14.885Z,30.40
2019-05-02T01:59:16.753Z,33.20
2019-05-02T02:00:19.481Z,28.60
2019-05-02T02:01:23.373Z,28.60
2019-05-02T02:02:32.734Z,34.20
2019-05-02T02:03:32.405Z,30.80
2019-05-02T02:04:34.817Z,30.20
2019-05-02T02:05:37.478Z,21.20
2019-05-02T02:06:43.431Z,32.80
2019-05-02T02:07:43.744Z,30.20
2019-05-02T02:08:46.287Z,33.20
2019-05-02T02:09:49.584Z,33.40
2019-05-02T02:10:56.453Z,33.60
2019-05-02T02:11:56.686Z,33.20
2019-05-02T02:13:04.632Z,30.40
2019-05-02T02:14:07.408Z,34.80
2019-05-02T02:15:09.006Z,36.80
2019-05-02T02:16:11.692Z,35.20
2019-05-02T02:17:15.575Z,37.20
2019-05-02T02:18:22.345Z,38.60
2019-05-02T02:19:34.701Z,36.40
2019-05-02T02:20:49.049Z,36.20
2019-05-02T02:21:57.408Z,34.40
2019-05-02T02:23:18.200Z,38.40
2019-05-02T02:24:28.842Z,33.00
2019-05-02T02:25:37.960Z,36.00
2019-05-02T02:26:43.662Z,32.20
2019-05-02T02:27:45.410Z,35.40
2019-05-02T02:28:47.816Z,36.60
2019-05-02T02:29:50.112Z,37.40
2019-05-02T02:30:57.720Z,34.00
2019-05-02T02:31:56.199Z,35.80
2019-05-02T02:33:00.367Z,42.60
2019-05-02T02:34:02.653Z,37.60
2019-05-02T02:35:10.074Z,38.00
2019-05-02T02:36:10.277Z,34.60
2019-05-02T02:37:15.121Z,34.60
2019-05-02T02:38:17.193Z,39.80
2019-05-02T02:39:19.574Z,40.80
2019-05-02T02:40:32.592Z,40.40
2019-05-02T02:41:26.350Z,37.20
2019-05-02T02:42:31.555Z,36.00
2019-05-02T02:43:34.612Z,40.00
2019-05-02T02:44:50.769Z,37.80
2019-05-02T02:46:11.466Z,36.00
2019-05-02T02:47:18.942Z,39.80
2019-05-02T02:48:22.457Z,40.80
2019-05-02T02:49:24.888Z,41.20
2019-05-02T02:50:27.395Z,36.20
2019-05-02T02:51:29.693Z,33.80
2019-05-02T02:52:37.905Z,38.60
2019-05-02T02:53:36.472Z,34.20
2019-05-02T02:54:43.279Z,40.00
2019-05-02T02:55:44.621Z,44.00
2019-05-02T02:56:47.035Z,36.60
2019-05-02T02:57:50.170Z,37.00
2019-05-02T02:58:52.094Z,37.40
2019-05-02T03:00:06.425Z,38.40
2019-05-02T03:00:58.907Z,32.00
2019-05-02T03:02:08.717Z,36.40
2019-05-02T03:03:06.272Z,36.80
2019-05-02T03:04:11.779Z,36.00
2019-05-02T03:05:18.529Z,38.40
2019-05-02T03:06:17.406Z,37.60
2019-05-02T03:07:25.592Z,36.80
2019-05-02T03:08:24.613Z,33.20
2019-05-02T03:09:29.071Z,32.60
2019-05-02T03:10:33.232Z,44.20
2019-05-02T03:11:38.392Z,41.60
2019-05-02T03:12:43.154Z,41.40
2019-05-02T03:14:05.680Z,38.80
2019-05-02T03:15:07.275Z,39.60
2019-05-02T03:16:21.068Z,42.60
2019-05-02T03:17:26.747Z,38.80
2019-05-02T03:18:39.722Z,35.80
2019-05-02T03:19:32.176Z,37.40
2019-05-02T03:20:40.591Z,37.00
2019-05-02T03:21:40.748Z,38.40
2019-05-02T03:22:43.788Z,47.60
2019-05-02T03:23:46.506Z,39.40
2019-05-02T03:24:48.447Z,40.00
2019-05-02T03:25:51.673Z,27.40
2019-05-02T03:26:55.653Z,41.20
2019-05-02T03:27:58.812Z,37.20
2019-05-02T03:29:01.289Z,35.80
2019-05-02T03:30:04.974Z,32.00
2019-05-02T03:31:20.980Z,34.20
2019-05-02T03:32:16.982Z,39.60
2019-05-02T03:33:16.944Z,40.00
2019-05-02T03:34:20.692Z,38.60
2019-05-02T03:35:40.538Z,40.00
2019-05-02T03:36:34.930Z,46.80
2019-05-02T03:37:34.153Z,39.80
2019-05-02T03:38:36.802Z,37.60
2019-05-02T03:39:40.341Z,42.60
2019-05-02T03:40:43.190Z,40.60
2019-05-02T03:41:46.229Z,40.00
2019-05-02T03:42:48.367Z,36.60
2019-05-02T03:44:09.102Z,33.80
2019-05-02T03:45:00.120Z,38.20
2019-05-02T03:45:59.100Z,45.20
2019-05-02T03:47:04.633Z,40.60
2019-05-02T03:48:07.252Z,36.80
2019-05-02T03:49:09.939Z,38.60
2019-05-02T03:50:12.651Z,38.40
2019-05-02T03:51:21.307Z,38.60
2019-05-02T03:52:19.259Z,41.40
2019-05-02T03:53:25.455Z,43.80
2019-05-02T03:54:29.259Z,39.60
2019-05-02T03:55:34.023Z,38.00
2019-05-02T03:56:36.613Z,37.00
2019-05-02T03:57:41.897Z,33.00
2019-05-02T03:58:48.738Z,37.00
2019-05-02T03:59:47.972Z,35.60
2019-05-02T04:01:00.383Z,35.20
2019-05-02T04:01:54.007Z,39.40
2019-05-02T04:03:00.351Z,33.60
2019-05-02T04:04:01.614Z,37.00
2019-05-02T04:05:05.242Z,34.00
2019-05-02T04:06:14.119Z,38.40
2019-05-02T04:07:14.386Z,33.40
2019-05-02T04:08:21.288Z,41.20
2019-05-02T04:09:39.160Z,31.40
2019-05-02T04:10:52.716Z,33.60
2019-05-02T04:11:54.429Z,35.20
2019-05-02T04:12:58.412Z,33.20
2019-05-02T04:14:01.844Z,32.00
2019-05-02T04:15:04.722Z,38.40
2019-05-02T04:16:14.621Z,35.60
2019-05-02T04:17:11.690Z,34.20
2019-05-02T04:18:15.686Z,37.40
2019-05-02T04:19:19.110Z,32.60
2019-05-02T04:20:22.298Z,34.20
2019-05-02T04:21:26.572Z,33.20
2019-05-02T04:22:30.390Z,31.40
2019-05-02T04:23:34.831Z,35.00
2019-05-02T04:24:37.318Z,29.80
2019-05-02T04:25:40.456Z,35.20
2019-05-02T04:26:53.811Z,32.60
2019-05-02T04:27:49.528Z,30.20
2019-05-02T04:28:52.255Z,35.60
2019-05-02T04:29:56.394Z,29.80
2019-05-02T04:30:59.210Z,30.20
2019-05-02T04:32:04.211Z,30.20
2019-05-02T04:33:06.343Z,25.80
2019-05-02T04:34:15.104Z,26.60
2019-05-02T04:35:12.288Z,33.80
2019-05-02T04:36:17.520Z,30.40
2019-05-02T04:37:18.481Z,28.80
2019-05-02T04:38:31.010Z,33.40
2019-05-02T04:39:28.440Z,25.00
2019-05-02T04:40:35.120Z,24.20
2019-05-02T04:41:34.463Z,26.40
2019-05-02T04:42:39.260Z,28.00
2019-05-02T04:43:54.560Z,27.00
2019-05-02T04:45:09.427Z,26.40
2019-05-02T04:45:56.104Z,21.60
2019-05-02T04:47:02.781Z,26.20
2019-05-02T04:48:03.889Z,25.00
2019-05-02T04:49:02.877Z,26.40
2019-05-02T04:50:17.536Z,24.00
2019-05-02T04:51:16.256Z,24.60
2019-05-02T04:52:20.142Z,26.40
2019-05-02T04:53:25.812Z,28.80
2019-05-02T04:54:31.321Z,27.00
2019-05-02T04:55:32.883Z,25.60
2019-05-02T04:56:33.098Z,24.00
2019-05-02T04:57:41.105Z,24.60
2019-05-02T04:58:40.698Z,21.60
2019-05-02T04:59:43.291Z,22.40
2019-05-02T05:00:53.498Z,24.20
2019-05-02T05:01:56.906Z,20.60
2019-05-02T05:02:54.634Z,28.60
2019-05-02T05:03:58.617Z,20.40
2019-05-02T05:05:01.355Z,26.40
2019-05-02T05:06:08.060Z,23.60
2019-05-02T05:07:09.267Z,23.40
2019-05-02T05:08:17.491Z,22.40
2019-05-02T05:09:18.052Z,22.60
2019-05-02T05:10:20.623Z,23.00
2019-05-02T05:11:24.943Z,20.00
2019-05-02T05:12:27.874Z,24.40
2019-05-02T05:13:32.216Z,21.80
2019-05-02T05:14:39.241Z,22.60
2019-05-02T05:15:48.409Z,20.60
2019-05-02T05:16:45.512Z,21.20
2019-05-02T05:17:50.043Z,25.60
2019-05-02T05:18:53.279Z,20.20
2019-05-02T05:19:57.727Z,18.60
2019-05-02T05:21:02.188Z,19.00
2019-05-02T05:22:06.299Z,22.00
2019-05-02T05:23:09.266Z,19.20
2019-05-02T05:24:11.566Z,18.20
2019-05-02T05:25:24.989Z,18.80
2019-05-02T05:26:33.815Z,25.20
2019-05-02T05:27:37.741Z,21.00
2019-05-02T05:28:44.207Z,22.00
2019-05-02T05:29:46.085Z,21.00
2019-05-02T05:30:51.894Z,18.20
2019-05-02T05:31:55.234Z,20.60
2019-05-02T05:32:58.313Z,19.80
2019-05-02T05:34:03.465Z,22.40
2019-05-02T05:35:09.011Z,20.20
2019-05-02T05:36:11.755Z,21.40
2019-05-02T05:37:13.855Z,19.40
2019-05-02T05:38:18.188Z,22.00
2019-05-02T05:39:22.517Z,19.80
2019-05-02T05:40:30.399Z,21.80
2019-05-02T05:41:29.305Z,19.40
2019-05-02T05:42:33.412Z,16.80
2019-05-02T05:43:38.006Z,19.80
2019-05-02T05:44:40.609Z,22.60
2019-05-02T05:45:53.458Z,24.60
2019-05-02T05:46:49.434Z,19.40
2019-05-02T05:47:52.305Z,19.20
2019-05-02T05:48:57.817Z,21.20
2019-05-02T05:50:01.189Z,19.80
2019-05-02T05:51:04.693Z,19.40
2019-05-02T05:52:08.037Z,19.00
2019-05-02T05:53:12.417Z,21.20
2019-05-02T05:54:14.219Z,19.40
2019-05-02T05:55:20.409Z,16.20
2019-05-02T05:56:21.381Z,17.20
2019-05-02T05:57:24.102Z,18.00
2019-05-02T05:58:28.317Z,22.60
2019-05-02T05:59:33.241Z,19.20
2019-05-02T06:00:38.055Z,16.00
2019-05-02T06:01:40.563Z,16.40
2019-05-02T06:02:53.247Z,24.40
2019-05-02T06:03:47.605Z,17.60
2019-05-02T06:04:50.303Z,18.80
2019-05-02T06:05:53.995Z,14.00
2019-05-02T06:06:59.417Z,20.60
2019-05-02T06:08:01.208Z,23.00
2019-05-02T06:09:07.071Z,19.00
2019-05-02T06:10:10.051Z,21.20
2019-05-02T06:11:14.885Z,27.40
2019-05-02T06:12:17.600Z,17.80
2019-05-02T06:13:20.350Z,13.40
2019-05-02T06:14:24.874Z,14.80
2019-05-02T06:15:28.324Z,18.20
2019-05-02T06:16:30.885Z,13.80
2019-05-02T06:17:33.784Z,16.20
2019-05-02T06:18:36.400Z,15.80
2019-05-02T06:19:41.556Z,18.00
2019-05-02T06:20:44.643Z,16.00
2019-05-02T06:21:50.724Z,14.60
2019-05-02T06:22:55.090Z,16.00
2019-05-02T06:23:57.839Z,14.60
2019-05-02T06:25:09.176Z,19.00
2019-05-02T06:26:13.630Z,16.00
2019-05-02T06:27:15.194Z,17.20
2019-05-02T06:28:19.197Z,20.40
2019-05-02T06:29:21.516Z,15.20
2019-05-02T06:30:27.093Z,15.20
2019-05-02T06:31:28.543Z,18.80
2019-05-02T06:32:30.707Z,19.60
2019-05-02T06:33:35.473Z,14.40
2019-05-02T06:34:38.836Z,15.60
2019-05-02T06:35:42.122Z,22.60
2019-05-02T06:36:44.776Z,19.60
2019-05-02T06:37:50.084Z,20.20
2019-05-02T06:38:56.563Z,17.20
2019-05-02T06:40:08.155Z,20.40
2019-05-02T06:41:10.029Z,19.20
2019-05-02T06:42:12.837Z,21.00
2019-05-02T06:43:15.609Z,23.20
2019-05-02T06:44:23.217Z,14.60
2019-05-02T06:45:23.136Z,18.60
2019-05-02T06:46:27.608Z,17.20
2019-05-02T06:47:35.842Z,19.00
2019-05-02T06:48:36.449Z,20.60
2019-05-02T06:49:38.599Z,18.80
2019-05-02T06:50:42.247Z,19.40
2019-05-02T06:51:44.753Z,22.00
2019-05-02T06:52:47.255Z,18.60
2019-05-02T06:53:52.209Z,14.60
2019-05-02T06:54:57.628Z,16.40
2019-05-02T06:55:59.441Z,19.80
2019-05-02T06:57:01.986Z,18.60
2019-05-02T06:58:08.013Z,16.20
2019-05-02T06:59:13.154Z,15.80
2019-05-02T07:00:15.217Z,14.80
2019-05-02T07:01:21.276Z,17.00
2019-05-02T07:02:22.583Z,16.60
2019-05-02T07:03:27.578Z,11.60
2019-05-02T07:04:29.916Z,15.00
2019-05-02T07:05:32.597Z,15.20
2019-05-02T07:06:49.805Z,15.60
2019-05-02T07:07:40.142Z,18.00
2019-05-02T07:08:42.928Z,15.20
2019-05-02T07:09:45.406Z,14.60
2019-05-02T07:10:48.331Z,15.40
2019-05-02T07:11:57.437Z,21.60
2019-05-02T07:13:10.210Z,16.40
2019-05-02T07:14:13.044Z,20.80
2019-05-02T07:15:16.787Z,18.60
2019-05-02T07:16:38.577Z,22.60
2019-05-02T07:17:38.932Z,15.60
2019-05-02T07:18:47.735Z,17.60
2019-05-02T07:20:03.845Z,21.00
2019-05-02T07:21:12.142Z,21.40
2019-05-02T07:22:13.136Z,17.00
2019-05-02T07:23:18.406Z,16.80
2019-05-02T07:24:25.315Z,17.80
2019-05-02T07:25:26.184Z,20.00
2019-05-02T07:26:28.398Z,16.80
2019-05-02T07:27:33.766Z,16.40
2019-05-02T07:28:40.353Z,17.20
2019-05-02T07:29:40.105Z,18.40
2019-05-02T07:30:43.816Z,17.20
2019-05-02T07:31:48.906Z,20.60
2019-05-02T07:32:56.367Z,17.20
2019-05-02T07:33:56.729Z,18.40
2019-05-02T07:34:59.659Z,19.20
2019-05-02T07:36:03.987Z,23.00
2019-05-02T07:37:08.415Z,23.60
2019-05-02T07:38:13.243Z,23.60
2019-05-02T07:39:16.177Z,21.60
2019-05-02T07:40:19.405Z,15.80
2019-05-02T07:41:24.277Z,18.80
2019-05-02T07:42:25.800Z,21.00
2019-05-02T07:43:30.294Z,22.20
2019-05-02T07:44:34.534Z,22.80
2019-05-02T07:45:40.392Z,23.60
2019-05-02T07:46:51.539Z,20.00
2019-05-02T07:47:45.767Z,24.80
2019-05-02T07:48:54.460Z,19.40
2019-05-02T07:49:54.672Z,25.00
2019-05-02T07:50:57.215Z,24.00
2019-05-02T07:51:59.791Z,23.60
2019-05-02T07:53:04.542Z,18.40
2019-05-02T07:54:06.862Z,22.80
2019-05-02T07:55:10.184Z,23.40
2019-05-02T07:56:17.779Z,26.60
2019-05-02T07:57:19.725Z,28.80
2019-05-02T07:58:21.563Z,23.00
2019-05-02T07:59:25.102Z,25.40
2019-05-02T08:00:32.083Z,23.00
2019-05-02T08:01:32.503Z,24.60
2019-05-02T08:02:34.848Z,26.00
2019-05-02T08:03:36.597Z,30.00
2019-05-02T08:04:43.593Z,26.20
2019-05-02T08:05:43.662Z,26.20
2019-05-02T08:06:46.458Z,24.40
2019-05-02T08:07:53.490Z,26.40
2019-05-02T08:08:54.682Z,27.00
2019-05-02T08:09:56.874Z,28.20
2019-05-02T08:11:01.690Z,25.80
2019-05-02T08:12:05.362Z,32.00
2019-05-02T08:13:12.220Z,30.80
2019-05-02T08:14:14.848Z,23.60
2019-05-02T08:15:17.248Z,29.20
2019-05-02T08:16:27.357Z,32.80
2019-05-02T08:17:27.004Z,28.80
2019-05-02T08:18:30.382Z,28.40
2019-05-02T08:19:37.575Z,27.60
2019-05-02T08:20:38.094Z,28.00
2019-05-02T08:21:40.474Z,28.80
2019-05-02T08:22:44.165Z,25.00
2019-05-02T08:23:48.400Z,27.40
2019-05-02T08:24:50.379Z,29.40
2019-05-02T08:25:53.152Z,30.40
2019-05-02T08:27:04.599Z,26.40
2019-05-02T08:28:10.009Z,27.20
2019-05-02T08:29:13.520Z,30.80
2019-05-02T08:30:20.076Z,30.20
2019-05-02T08:31:22.486Z,17.80
2019-05-02T08:32:26.542Z,30.80
2019-05-02T08:33:34.383Z,23.40
2019-05-02T08:34:33.253Z,32.20
2019-05-02T08:35:36.419Z,32.00
2019-05-02T08:36:38.381Z,24.40
2019-05-02T08:37:41.079Z,23.20
2019-05-02T08:38:48.903Z,27.40
2019-05-02T08:39:48.394Z,24.00
2019-05-02T08:40:51.137Z,24.20
2019-05-02T08:41:56.494Z,23.80
2019-05-02T08:42:57.471Z,30.80
2019-05-02T08:44:00.117Z,30.00
2019-05-02T08:45:05.931Z,27.40
2019-05-02T08:46:14.537Z,26.60
2019-05-02T08:47:19.057Z,26.20
2019-05-02T08:48:18.921Z,31.60
2019-05-02T08:49:21.625Z,25.40
2019-05-02T08:50:27.247Z,20.00
2019-05-02T08:51:28.408Z,29.80
2019-05-02T08:52:31.591Z,27.40
2019-05-02T08:53:34.115Z,23.80
2019-05-02T08:54:36.360Z,23.00
2019-05-02T08:55:41.319Z,30.40
2019-05-02T08:56:46.153Z,27.80
2019-05-02T08:57:48.661Z,26.40
2019-05-02T08:58:51.259Z,28.20
2019-05-02T08:59:55.322Z,23.80
2019-05-02T09:00:57.891Z,31.00
2019-05-02T09:02:00.550Z,26.60
2019-05-02T09:03:04.781Z,25.20
2019-05-02T09:04:07.279Z,24.40
2019-05-02T09:05:10.336Z,23.40
2019-05-02T09:06:17.225Z,26.20
2019-05-02T09:07:19.288Z,23.80
2019-05-02T09:08:21.668Z,23.40
2019-05-02T09:09:28.091Z,23.80
2019-05-02T09:10:30.101Z,23.20
2019-05-02T09:11:33.650Z,22.80
2019-05-02T09:12:36.934Z,21.40
2019-05-02T09:13:42.062Z,22.40
2019-05-02T09:14:44.346Z,28.60
2019-05-02T09:15:51.286Z,27.20
2019-05-02T09:16:53.526Z,23.60
2019-05-02T09:17:56.659Z,23.20
2019-05-02T09:18:58.497Z,24.40
2019-05-02T09:20:10.563Z,34.20
2019-05-02T09:21:08.386Z,26.40
2019-05-02T09:22:13.236Z,23.80
2019-05-02T09:23:16.693Z,27.60
2019-05-02T09:24:23.221Z,28.80
2019-05-02T09:25:23.320Z,29.40
2019-05-02T09:26:35.157Z,23.40
2019-05-02T09:27:31.726Z,26.40
2019-05-02T09:28:34.355Z,22.00
2019-05-02T09:29:37.316Z,24.00
2019-05-02T09:30:41.857Z,32.00
2019-05-02T09:31:46.229Z,22.80
2019-05-02T09:32:52.285Z,21.00
2019-05-02T09:33:55.713Z,24.20
2019-05-02T09:35:02.190Z,22.80
2019-05-02T09:36:02.482Z,22.80
2019-05-02T09:37:04.554Z,21.20
2019-05-02T09:38:06.951Z,23.40
2019-05-02T09:39:11.903Z,19.60
2019-05-02T09:40:16.841Z,24.80
2019-05-02T09:41:20.149Z,22.80
2019-05-02T09:42:24.008Z,22.60
2019-05-02T09:43:29.365Z,21.00
2019-05-02T09:44:33.223Z,24.20
2019-05-02T09:45:37.576Z,19.20
2019-05-02T09:46:42.628Z,18.20
2019-05-02T09:47:56.646Z,21.20
2019-05-02T09:48:51.848Z,24.60
2019-05-02T09:50:08.078Z,25.20
2019-05-02T09:51:16.796Z,24.60
2019-05-02T09:52:15.739Z,25.20
2019-05-02T09:53:20.854Z,21.60
2019-05-02T09:54:24.300Z,19.40
2019-05-02T09:55:29.084Z,22.00
2019-05-02T09:56:33.591Z,23.20
2019-05-02T09:57:37.992Z,19.80
2019-05-02T09:58:44.600Z,25.60
2019-05-02T09:59:50.662Z,26.00
2019-05-02T10:00:58.925Z,27.00
2019-05-02T10:02:03.001Z,21.80
2019-05-02T10:03:06.552Z,22.40
2019-05-02T10:04:11.864Z,19.60
2019-05-02T10:05:14.699Z,21.80
2019-05-02T10:06:18.341Z,23.80
2019-05-02T10:07:22.270Z,21.40
2019-05-02T10:08:24.878Z,27.80
2019-05-02T10:09:29.155Z,25.20
2019-05-02T10:10:32.508Z,24.20
2019-05-02T10:11:35.575Z,19.60
2019-05-02T10:12:37.908Z,22.60
2019-05-02T10:13:42.418Z,26.20
2019-05-02T10:14:44.949Z,20.00
2019-05-02T10:15:47.507Z,22.00
2019-05-02T10:16:49.743Z,20.40
2019-05-02T10:17:52.612Z,27.20
2019-05-02T10:19:00.273Z,26.40
2019-05-02T10:20:02.056Z,23.20
2019-05-02T10:21:07.793Z,23.80
2019-05-02T10:22:12.281Z,25.00
2019-05-02T10:23:19.709Z,20.00
2019-05-02T10:24:19.292Z,23.40
2019-05-02T10:25:23.161Z,24.80
2019-05-02T10:26:27.731Z,21.80
2019-05-02T10:27:29.881Z,19.40
2019-05-02T10:28:33.735Z,29.00
2019-05-02T10:29:36.236Z,22.40
2019-05-02T10:30:39.170Z,21.40
2019-05-02T10:31:42.191Z,23.60
2019-05-02T10:32:47.286Z,21.60
2019-05-02T10:33:48.855Z,20.20
2019-05-02T10:34:55.230Z,21.60
2019-05-02T10:35:57.035Z,23.20
2019-05-02T10:37:00.249Z,28.00
2019-05-02T10:38:03.589Z,21.20
2019-05-02T10:39:07.461Z,22.20
2019-05-02T10:40:13.469Z,23.20
2019-05-02T10:41:14.830Z,25.60
2019-05-02T10:42:16.777Z,27.40
2019-05-02T10:43:19.881Z,27.80
2019-05-02T10:44:22.715Z,23.00
2019-05-02T10:45:25.345Z,20.00
2019-05-02T10:46:33.401Z,22.60
2019-05-02T10:47:36.416Z,27.60
2019-05-02T10:48:42.797Z,25.60
2019-05-02T10:49:47.031Z,19.60
2019-05-02T10:50:49.249Z,20.40
2019-05-02T10:51:53.886Z,21.00
2019-05-02T10:52:56.495Z,20.20
2019-05-02T10:53:59.220Z,15.60
2019-05-02T10:55:02.710Z,22.60
2019-05-02T10:56:05.631Z,27.40
2019-05-02T10:57:08.912Z,21.20
2019-05-02T10:58:13.073Z,25.20
2019-05-02T10:59:16.090Z,23.20
2019-05-02T11:00:22.114Z,19.80
2019-05-02T11:01:26.078Z,20.40
2019-05-02T11:02:47.200Z,23.80
2019-05-02T11:03:51.954Z,18.60
2019-05-02T11:04:56.380Z,28.20
2019-05-02T11:06:05.707Z,19.80
2019-05-02T11:07:07.368Z,21.60
2019-05-02T11:08:12.920Z,27.60
2019-05-02T11:09:22.452Z,20.20
2019-05-02T11:10:22.170Z,16.20
2019-05-02T11:11:24.506Z,17.60
2019-05-02T11:12:41.936Z,23.20
2019-05-02T11:13:44.240Z,24.20
2019-05-02T11:14:51.775Z,20.00
2019-05-02T11:16:01.711Z,22.60
2019-05-02T11:17:17.671Z,18.80
2019-05-02T11:18:23.382Z,21.00
2019-05-02T11:19:44.024Z,20.40
2019-05-02T11:20:46.748Z,23.80
2019-05-02T11:21:56.522Z,19.60
2019-05-02T11:22:57.578Z,21.80
2019-05-02T11:24:02.608Z,20.00
2019-05-02T11:25:05.994Z,22.80
2019-05-02T11:26:08.350Z,21.00
2019-05-02T11:27:14.181Z,21.20
2019-05-02T11:28:17.546Z,25.40
2019-05-02T11:29:20.201Z,22.40
2019-05-02T11:30:26.490Z,20.60
2019-05-02T11:31:27.757Z,20.20
2019-05-02T11:32:32.562Z,22.00
2019-05-02T11:33:35.469Z,21.80
2019-05-02T11:34:37.801Z,16.60
2019-05-02T11:35:41.657Z,19.00
2019-05-02T11:36:46.753Z,22.60
2019-05-02T11:37:49.254Z,20.40
2019-05-02T11:38:59.049Z,19.40
2019-05-02T11:40:00.289Z,20.60
2019-05-02T11:41:02.753Z,19.00
2019-05-02T11:42:07.251Z,21.20
2019-05-02T11:43:09.245Z,18.80
2019-05-02T11:44:13.091Z,17.60
2019-05-02T11:45:15.928Z,22.00
2019-05-02T11:46:21.614Z,18.60
2019-05-02T11:47:26.698Z,21.00
2019-05-02T11:48:29.556Z,20.40
2019-05-02T11:49:32.119Z,20.80
2019-05-02T11:50:35.565Z,15.40
2019-05-02T11:51:38.196Z,20.20
2019-05-02T11:52:42.391Z,19.40
2019-05-02T11:53:45.209Z,22.60
2019-05-02T11:54:48.636Z,20.40
2019-05-02T11:55:53.174Z,22.40
2019-05-02T11:56:55.909Z,16.40
2019-05-02T11:58:00.812Z,19.00
2019-05-02T11:59:03.074Z,18.60
2019-05-02T12:00:09.026Z,23.20
2019-05-02T12:01:12.574Z,19.00
2019-05-02T12:02:19.000Z,18.60
2019-05-02T12:03:35.534Z,22.00
2019-05-02T12:04:33.982Z,21.60
2019-05-02T12:05:39.308Z,21.80
2019-05-02T12:06:42.267Z,20.60
2019-05-02T12:07:45.012Z,20.80
2019-05-02T12:08:49.518Z,19.80
2019-05-02T12:09:56.905Z,21.40
2019-05-02T12:10:55.580Z,17.20
2019-05-02T12:11:59.708Z,24.20
2019-05-02T12:13:06.688Z,18.40
2019-05-02T12:14:07.228Z,19.40
2019-05-02T12:15:11.964Z,21.80
2019-05-02T12:16:16.103Z,19.20
2019-05-02T12:17:18.921Z,23.40
2019-05-02T12:18:23.423Z,21.00
2019-05-02T12:19:27.994Z,20.20
2019-05-02T12:20:33.781Z,21.20
2019-05-02T12:21:34.849Z,22.40
2019-05-02T12:22:37.817Z,22.20
2019-05-02T12:23:41.830Z,18.80
2019-05-02T12:24:45.455Z,20.40
2019-05-02T12:25:48.407Z,22.80
2019-05-02T12:26:52.686Z,21.80
2019-05-02T12:27:54.937Z,22.40
2019-05-02T12:28:57.350Z,22.40
2019-05-02T12:30:03.126Z,25.20
2019-05-02T12:31:13.245Z,19.80
2019-05-02T12:32:16.289Z,19.20
2019-05-02T12:33:22.208Z,19.00
2019-05-02T12:34:24.787Z,19.20
2019-05-02T12:35:28.181Z,22.60
2019-05-02T12:36:33.110Z,24.20
2019-05-02T12:37:35.676Z,16.80
2019-05-02T12:38:38.336Z,20.20
2019-05-02T12:39:42.423Z,16.80
2019-05-02T12:40:44.777Z,25.00
2019-05-02T12:41:48.637Z,19.40
2019-05-02T12:42:52.481Z,19.00
2019-05-02T12:43:55.165Z,18.20
2019-05-02T12:44:57.986Z,20.80
2019-05-02T12:46:02.101Z,19.20
2019-05-02T12:47:06.926Z,17.60
2019-05-02T12:48:09.538Z,15.80
2019-05-02T12:49:24.333Z,23.00
2019-05-02T12:50:17.428Z,15.80
2019-05-02T12:51:19.732Z,23.40
2019-05-02T12:52:22.618Z,19.00
2019-05-02T12:53:25.209Z,18.00
2019-05-02T12:54:28.241Z,25.00
2019-05-02T12:55:33.753Z,25.00
2019-05-02T12:56:35.985Z,24.00
2019-05-02T12:57:38.184Z,18.20
2019-05-02T12:58:42.117Z,20.80
2019-05-02T12:59:44.668Z,18.60
2019-05-02T13:00:47.902Z,20.40
2019-05-02T13:01:52.652Z,21.80
2019-05-02T13:02:59.024Z,15.80
2019-05-02T13:04:03.942Z,21.40
2019-05-02T13:05:06.725Z,11.40
2019-05-02T13:06:09.144Z,16.80
2019-05-02T13:07:12.748Z,17.00
2019-05-02T13:08:15.969Z,17.80
2019-05-02T13:09:17.688Z,16.00
2019-05-02T13:10:25.147Z,18.60
2019-05-02T13:11:27.833Z,17.80
2019-05-02T13:12:45.821Z,18.20
2019-05-02T13:13:48.973Z,13.20
2019-05-02T13:14:52.926Z,17.00
2019-05-02T13:16:00.566Z,18.20
2019-05-02T13:17:05.681Z,15.40
2019-05-02T13:18:07.053Z,15.00
2019-05-02T13:19:11.801Z,15.80
2019-05-02T13:20:17.915Z,21.40
2019-05-02T13:21:38.998Z,18.20
2019-05-02T13:22:39.673Z,21.00
2019-05-02T13:23:44.625Z,15.80
2019-05-02T13:24:54.791Z,14.80
2019-05-02T13:25:56.183Z,16.00
2019-05-02T13:27:04.034Z,13.80
2019-05-02T13:28:05.545Z,18.40
2019-05-02T13:29:11.817Z,20.20
2019-05-02T13:30:43.024Z,19.20
2019-05-02T13:31:45.209Z,22.20
2019-05-02T13:32:56.127Z,14.40
2019-05-02T13:34:06.545Z,18.20
2019-05-02T13:35:08.918Z,12.80
2019-05-02T13:36:38.191Z,14.00
2019-05-02T13:37:42.412Z,16.40
2019-05-02T13:38:45.317Z,16.60
2019-05-02T13:40:02.566Z,15.80
2019-05-02T13:41:06.807Z,18.00
2019-05-02T13:42:09.470Z,18.60
2019-05-02T13:43:12.540Z,15.60
2019-05-02T13:44:18.883Z,16.40
2019-05-02T13:45:29.465Z,17.20
2019-05-02T13:46:32.230Z,15.20
2019-05-02T13:47:36.266Z,17.40
2019-05-02T13:48:38.333Z,21.80
2019-05-02T13:49:51.383Z,15.40